sensor_id;sensor_type;location;lat;lon;timestamp;pressure;altitude;pressure_sealevel;temperature;humidity
71642;BME280;60657;50.122;14.468;2023-02-04T00:03:00;98294.79432484497;;;5.995269703212024;71.24498359655146
71642;BME280;60657;50.122;14.468;2023-02-04T00:06:08;98271.6372827017;;;5.957885099565118;71.31937132829786
71642;BME280;60657;50.122;14.468;2023-02-04T00:09:16;98290.47295494209;;;5.893797207598993;71.69703212024109
71642;BME280;60657;50.122;14.468;2023-02-04T00:12:24;98273.11848481608;;;5.789654383154037;71.94117647058823
71642;BME280;60657;50.122;14.468;2023-02-04T00:15:32;98273.95036510921;;;5.856412603952087;72.10521095597773
71642;BME280;60657;50.122;14.468;2023-02-04T00:18:40;98299.46018012094;;;5.752269779507131;72.10330357824064
71642;BME280;60657;50.122;14.468;2023-02-04T00:21:47;98293.63554413813;;;5.80300602731365;72.17006179903868
71642;BME280;60657;50.122;14.468;2023-02-04T00:24:55;98286.17097236842;;;5.762951094834818;72.33981841763944
71642;BME280;60657;50.122;14.468;2023-02-04T00:28:03;98298.53189686294;;;5.762951094834818;72.36461432822156
71642;BME280;60657;50.122;14.468;2023-02-04T00:31:11;98304.35693195308;;;5.77897306782635;72.50194552529183
71642;BME280;60657;50.122;14.468;2023-02-04T00:34:19;98298.53189686294;;;5.7202258335240685;72.54200045777065
71642;BME280;60657;50.122;14.468;2023-02-04T00:37:27;98313.29101291923;;;5.6534676127260255;72.78423743038071
71642;BME280;60657;50.122;14.468;2023-02-04T00:40:35;98302.49658515316;;;5.618753337911038;73.05508506904708
71642;BME280;60657;50.122;14.468;2023-02-04T00:43:44;98314.09844889496;;;5.672159914549475;73.04364080262455
71642;BME280;60657;50.122;14.468;2023-02-04T00:46:51;98323.22906592967;;;5.7415884641794435;72.97306782635233
71642;BME280;60657;50.122;14.468;2023-02-04T00:49:59;98319.84972834447;;;5.666819256885631;73.11421377889677
71642;BME280;60657;50.122;14.468;2023-02-04T00:53:08;98328.07272269079;;;5.666819256885631;73.29159990844587
71642;BME280;60657;50.122;14.468;2023-02-04T00:56:15;98345.16765823621;;;5.519951171129932;73.76653696498055
71642;BME280;60657;50.122;14.468;2023-02-04T00:59:23;98349.40955275099;;;5.632104982070651;73.78942549782559
71642;BME280;60657;50.122;14.468;2023-02-04T01:02:32;98351.93347924063;;;5.640115968566413;73.92294193942168
71642;BME280;60657;50.122;14.468;2023-02-04T01:05:40;98356.04455270068;;;5.648126955062182;74.16899366750592
71642;BME280;60657;50.122;14.468;2023-02-04T01:08:48;98339.5998488786;;;5.6534676127260255;74.31395437552453
71642;BME280;60657;50.122;14.468;2023-02-04T01:11:56;98354.43136877408;;;5.648126955062182;74.44365606164645
71642;BME280;60657;50.122;14.468;2023-02-04T01:15:04;98380.65562769129;;;5.549324788281069;74.86900129701687
71642;BME280;60657;50.122;14.468;2023-02-04T01:18:12;98384.04110500393;;;5.589379720759901;75.08262760357061
71642;BME280;60657;50.122;14.468;2023-02-04T01:21:22;98425.11729553157;;;5.474555580987257;77.8693064774548
71642;BME280;60657;50.122;14.468;2023-02-04T01:24:31;98426.88712138894;;;5.114061188677809;80.25162127107653
71642;BME280;60657;50.122;14.468;2023-02-04T01:27:39;98456.98642371656;;;4.956511787594415;81.83474479285877
71642;BME280;60657;50.122;14.468;2023-02-04T01:30:47;98464.03693133348;;;4.801632715342947;82.38788433661402
71642;BME280;60657;50.122;14.468;2023-02-04T01:33:55;98469.67563413508;;;4.74822613870451;82.24864576180667
71642;BME280;60657;50.122;14.468;2023-02-04T01:37:03;98485.1862749625;;;4.721522850385291;80.68078126192111
71642;BME280;60657;50.122;14.468;2023-02-04T01:40:11;98503.36919153297;;;4.750896467536428;80.0494392309453
71642;BME280;60657;50.122;14.468;2023-02-04T01:43:19;98534.3436832791;;;4.609369039444573;77.81971465629053
71642;BME280;60657;50.122;14.468;2023-02-04T01:46:28;98513.58585575216;;;4.545281147478448;77.08155947203784
71642;BME280;60657;50.122;14.468;2023-02-04T01:49:36;98550.60425063869;;;4.491874570840011;76.866025787747
71642;BME280;60657;50.122;14.468;2023-02-04T01:52:44;98564.50262975923;;;4.4224460212100425;77.06248569466698
71642;BME280;60657;50.122;14.468;2023-02-04T01:55:53;98564.12693100881;;;4.278248264286262;76.31860837720302
71642;BME280;60657;50.122;14.468;2023-02-04T01:59:01;98561.54558209746;;;4.32364385442893;75.93713282978561
71642;BME280;60657;50.122;14.468;2023-02-04T02:02:51;98595.92748143106;;;4.243533989471274;75.41832608529793
71642;BME280;60657;50.122;14.468;2023-02-04T02:06:00;98616.57704113492;;;4.272907606622418;75.2161440451667
71642;BME280;60657;50.122;14.468;2023-02-04T02:09:08;98650.0349109105;;;4.190127412832837;75.19897764553292
71642;BME280;60657;50.122;14.468;2023-02-04T02:12:16;98642.43017546779;;;4.1367208361943995;74.69733730067902
71642;BME280;60657;50.122;14.468;2023-02-04T02:15:24;98669.18024408912;;;3.949797817959869;73.9496452277409
71642;BME280;60657;50.122;14.468;2023-02-04T02:18:33;98686.97461159297;;;3.8509956511787564;73.34500648508431
71642;BME280;60657;50.122;14.468;2023-02-04T02:21:43;98688.60371816675;;;3.9017318989852754;73.2877851529717
71642;BME280;60657;50.122;14.468;2023-02-04T02:24:59;98718.66867145628;;;3.7869077592126317;73.22484168764782
71642;BME280;60657;50.122;14.468;2023-02-04T02:28:09;98717.21921909283;;;3.8162813763637757;72.96353093766689
71642;BME280;60657;50.122;14.468;2023-02-04T02:31:21;98716.1136832861;;;3.7121385519188195;73.04936293583582
71642;BME280;60657;50.122;14.468;2023-02-04T02:34:30;98733.18545024932;;;3.642710002288851;73.28397039749753
71642;BME280;60657;50.122;14.468;2023-02-04T02:37:40;98738.67470121503;;;3.642710002288851;73.28206301976043
71642;BME280;60657;50.122;14.468;2023-02-04T02:40:48;98740.11554555624;;;3.5358968490119764;73.19241626611735
71642;BME280;60657;50.122;14.468;2023-02-04T02:43:57;98749.68823855427;;;3.4264133669031835;73.20195315480278
71642;BME280;60657;50.122;14.468;2023-02-04T02:47:05;98760.52338704964;;;3.4718089570458517;73.30304417486839
71642;BME280;60657;50.122;14.468;2023-02-04T02:50:14;98787.97889215364;;;3.2742046234836337;73.22674906538491
71642;BME280;60657;50.122;14.468;2023-02-04T02:53:23;98788.8163590386;;;3.3543144884412897;72.38368810559243
71642;BME280;60657;50.122;14.468;2023-02-04T02:56:31;98809.41098229289;;;3.343633173113602;72.3436331731136
71642;BME280;60657;50.122;14.468;2023-02-04T02:59:40;98810.19923674918;;;3.386358434424352;71.99458304722667
71642;BME280;60657;50.122;14.468;2023-02-04T03:02:51;98831.28223104576;;;3.2288090333409656;71.95834287022201
71642;BME280;60657;50.122;14.468;2023-02-04T03:06:04;98846.31403101204;;;3.3089188982986215;71.82864118410009
71642;BME280;60657;50.122;14.468;2023-02-04T03:09:18;98851.4420600802;;;3.4397650110627893;71.93736171511406
71642;BME280;60657;50.122;14.468;2023-02-04T03:12:27;98866.80948732373;;;3.33562218661784;72.86243991760128
71642;BME280;60657;50.122;14.468;2023-02-04T03:15:35;98877.399358932;;;3.282215609979403;73.44609750514992
71642;BME280;60657;50.122;14.468;2023-02-04T03:18:43;98877.142178384;;;3.180743114366372;73.61776150148775
71642;BME280;60657;50.122;14.468;2023-02-04T03:21:52;98896.48034208182;;;3.092622262912947;74.51422903791867
71642;BME280;60657;50.122;14.468;2023-02-04T03:25:02;98897.94595116758;;;3.004501411459529;75.37064164187076
71642;BME280;60657;50.122;14.468;2023-02-04T03:28:11;98903.17437480338;;;2.895017929350729;75.8646524757763
71642;BME280;60657;50.122;14.468;2023-02-04T03:31:19;98920.13546591405;;;2.822919050888835;76.17174029144732
71642;BME280;60657;50.122;14.468;2023-02-04T03:34:29;98925.78782131383;;;2.8309300373846042;75.46791790646219
71642;BME280;60657;50.122;14.468;2023-02-04T03:37:37;98940.44652318851;;;2.8255893797207605;74.87281605249103
71642;BME280;60657;50.122;14.468;2023-02-04T03:40:45;98953.87118884441;;;2.8255893797207605;74.52948805981536
71642;BME280;60657;50.122;14.468;2023-02-04T03:43:53;98973.67735174196;;;2.8683146410315103;74.84992751964599
71642;BME280;60657;50.122;14.468;2023-02-04T03:47:01;98976.81088520137;;;2.84428168154421;74.75265125505454
71642;BME280;60657;50.122;14.468;2023-02-04T03:50:09;98982.3486604819;;;2.7882047760738544;74.75265125505454
71642;BME280;60657;50.122;14.468;2023-02-04T03:53:17;98984.86670980387;;;2.8416113527122917;74.32539864194705
71642;BME280;60657;50.122;14.468;2023-02-04T03:56:25;99015.24620483238;;;2.8416113527122917;73.99351491569391
71642;BME280;60657;50.122;14.468;2023-02-04T03:59:33;99044.67084786472;;;2.8416113527122917;74.57717250324254
71642;BME280;60657;50.122;14.468;2023-02-04T04:02:41;99047.6811535912;;;2.7454795147631046;77.59655146105135
71642;BME280;60657;50.122;14.468;2023-02-04T04:05:49;99060.59769586187;;;2.411688410772868;81.5810635538262
71642;BME280;60657;50.122;14.468;2023-02-04T04:08:57;99055.72936528758;;;2.3422598611428995;81.26253147173266
71642;BME280;60657;50.122;14.468;2023-02-04T04:12:05;99069.76938348667;;;2.3983367666132622;79.34943160143435
71642;BME280;60657;50.122;14.468;2023-02-04T04:15:13;99091.0662101209;;;2.352941176470587;78.06767376211185
71642;BME280;60657;50.122;14.468;2023-02-04T04:18:21;99113.39033373953;;;2.315556572823681;76.96139467460135
71642;BME280;60657;50.122;14.468;2023-02-04T04:21:29;99122.45148942627;;;2.3796444647898056;76.20607309071488
71642;BME280;60657;50.122;14.468;2023-02-04T04:24:37;99127.55824349316;;;2.403677424277106;75.12649729152362
71642;BME280;60657;50.122;14.468;2023-02-04T04:27:47;99133.06950686703;;;2.390325780117493;73.14473182269016
71642;BME280;60657;50.122;14.468;2023-02-04T04:30:55;99152.43242008126;;;2.3128862439917626;72.25398641947051
71642;BME280;60657;50.122;14.468;2023-02-04T04:34:03;99165.11177259084;;;2.390325780117493;72.26543068589304
71642;BME280;60657;50.122;14.468;2023-02-04T04:37:11;99169.84118737526;;;2.360952162966356;71.69321736476692
71642;BME280;60657;50.122;14.468;2023-02-04T04:40:20;99187.90127351115;;;2.32356755931945;71.4605172808423
71642;BME280;60657;50.122;14.468;2023-02-04T04:43:27;99189.13365771197;;;2.2808422980087;71.46242465857938
71642;BME280;60657;50.122;14.468;2023-02-04T04:46:35;99170.29904041962;;;2.2808422980087;71.3727779049363
71642;BME280;60657;50.122;14.468;2023-02-04T04:49:43;99194.1173140934;;;2.336919203479056;71.40901808194094
71642;BME280;60657;50.122;14.468;2023-02-04T04:52:51;99226.9986306487;;;2.2327763790341066;71.39948119325551
71642;BME280;60657;50.122;14.468;2023-02-04T04:55:59;99227.90554630785;;;2.3128862439917626;71.58449683375295
71642;BME280;60657;50.122;14.468;2023-02-04T04:59:07;99232.2440446758;;;2.425040054932481;71.26024261844816
71642;BME280;60657;50.122;14.468;2023-02-04T05:02:15;99241.30734417039;;;2.3342488746471375;71.19729915312429
71642;BME280;60657;50.122;14.468;2023-02-04T05:05:23;99258.39604129354;;;2.3182269016556063;71.19157701991303
71642;BME280;60657;50.122;14.468;2023-02-04T05:08:32;99264.80177107839;;;2.2835126268406185;70.92454413672084
71642;BME280;60657;50.122;14.468;2023-02-04T05:11:40;99277.9426723441;;;2.3796444647898056;70.68993667505913
71642;BME280;60657;50.122;14.468;2023-02-04T05:14:48;99288.88976691026;;;2.446402685587856;70.2684061951629
71642;BME280;60657;50.122;14.468;2023-02-04T05:17:56;99305.20122993542;;;2.331578545815212;70.66132600900282
71642;BME280;60657;50.122;14.468;2023-02-04T05:21:04;99320.36249700602;;;2.4223697261005555;70.11390859845883
71642;BME280;60657;50.122;14.468;2023-02-04T05:24:12;99325.85795940715;;;2.390325780117493;70.35805294880598
71642;BME280;60657;50.122;14.468;2023-02-04T05:27:20;99332.32864973096;;;2.3929961089494185;70.48012512397955
71642;BME280;60657;50.122;14.468;2023-02-04T05:30:28;99342.23648901764;;;2.4223697261005555;70.31418326085299
71642;BME280;60657;50.122;14.468;2023-02-04T05:33:36;99357.77216559951;;;2.403677424277106;70.66132600900282
71642;BME280;60657;50.122;14.468;2023-02-04T05:36:44;99366.49662593773;;;2.2995345998321497;70.17303730830854
71642;BME280;60657;50.122;14.468;2023-02-04T05:39:56;99381.96097986921;;;2.2968642710002314;69.87930113679712
71642;BME280;60657;50.122;14.468;2023-02-04T05:43:05;99386.60349251529;;;2.222095063706419;69.10490577553979
71642;BME280;60657;50.122;14.468;2023-02-04T05:46:13;99395.80730366734;;;2.2755016403448565;68.90272373540856
71642;BME280;60657;50.122;14.468;2023-02-04T05:49:21;99395.37938224892;;;2.3128862439917626;67.95857175555047
71642;BME280;60657;50.122;14.468;2023-02-04T05:52:29;99401.28046305488;;;2.4010070954451805;67.50843060959792
71642;BME280;60657;50.122;14.468;2023-02-04T05:55:37;99414.21668894636;;;2.360952162966356;67.41687647821774
71642;BME280;60657;50.122;14.468;2023-02-04T05:58:45;99419.1367852451;;;2.339589532310981;67.14793621728847
71642;BME280;60657;50.122;14.468;2023-02-04T06:01:53;99430.59376919288;;;2.3289082169832938;66.63675898374915
71642;BME280;60657;50.122;14.468;2023-02-04T06:05:01;99441.6265929342;;;2.382314793621731;66.77218280308232
71642;BME280;60657;50.122;14.468;2023-02-04T06:08:10;99455.54533998249;;;2.3876554512855748;66.71496147096971
71642;BME280;60657;50.122;14.468;2023-02-04T06:11:18;99462.15304669888;;;2.4437323567559304;66.67299916075379
71642;BME280;60657;50.122;14.468;2023-02-04T06:14:26;99471.92427098658;;;2.3582818341344307;66.90569924467842
71642;BME280;60657;50.122;14.468;2023-02-04T06:17:34;99470.58827365206;;;2.419699397268637;66.97436484321355
71642;BME280;60657;50.122;14.468;2023-02-04T06:20:42;99485.35190665818;;;2.4437323567559304;67.03921568627452
71642;BME280;60657;50.122;14.468;2023-02-04T06:23:50;99489.64057938756;;;2.5024795910582114;67.4378576333257
71642;BME280;60657;50.122;14.468;2023-02-04T06:26:58;99488.7265961492;;;2.470435645075149;68.08827344167238
71642;BME280;60657;50.122;14.468;2023-02-04T06:30:06;99492.10135134283;;;2.499809262226293;68.40680552376593
71642;BME280;60657;50.122;14.468;2023-02-04T06:33:17;99501.10068444328;;;2.4757763027389927;68.75585564965286
71642;BME280;60657;50.122;14.468;2023-02-04T06:36:25;99506.58269854494;;;2.4944686045624493;68.66811627374685
71642;BME280;60657;50.122;14.468;2023-02-04T06:39:33;99511.01449784273;;;2.4757763027389927;68.53650720988784
71642;BME280;60657;50.122;14.468;2023-02-04T06:42:41;99510.0998937795;;;2.4891279468986056;68.05775539787899
71642;BME280;60657;50.122;14.468;2023-02-04T06:45:50;99536.25270166577;;;2.441062027924012;68.10543984130618
71642;BME280;60657;50.122;14.468;2023-02-04T06:48:58;99543.77804423138;;;2.5158312352178243;67.39208056763562
71642;BME280;60657;50.122;14.468;2023-02-04T06:52:06;99563.17594599832;;;2.4357213702601683;66.89997711146715
71642;BME280;60657;50.122;14.468;2023-02-04T06:55:15;99572.31896724207;;;2.470435645075149;66.62340733958953
71642;BME280;60657;50.122;14.468;2023-02-04T06:58:23;99574.08008248782;;;2.4891279468986056;66.59670405127031
71642;BME280;60657;50.122;14.468;2023-02-04T07:01:32;99586.04597656509;;;2.5692378118562615;66.27054245822843
71642;BME280;60657;50.122;14.468;2023-02-04T07:04:40;99597.3626471226;;;2.5532158388647304;65.98825055313954
71642;BME280;60657;50.122;14.468;2023-02-04T07:07:48;99610.03103324592;;;2.617303730830855;65.9195849546044
71642;BME280;60657;50.122;14.468;2023-02-04T07:10:56;99624.17251202126;;;2.660028992141605;66.09697108415351
71642;BME280;60657;50.122;14.468;2023-02-04T07:14:04;99626.77901902016;;;2.6947432669565856;65.96154726482033
71642;BME280;60657;50.122;14.468;2023-02-04T07:17:12;99637.83255971443;;;2.742809185931179;66.13511863889525
71642;BME280;60657;50.122;14.468;2023-02-04T07:20:21;99648.30764563601;;;2.756160830090792;66.30296787975891
71642;BME280;60657;50.122;14.468;2023-02-04T07:23:30;99652.26565361797;;;2.9083695735103348;66.45937285420004
71642;BME280;60657;50.122;14.468;2023-02-04T07:26:39;99665.29641201784;;;3.02052338445106;66.08552681773098
71642;BME280;60657;50.122;14.468;2023-02-04T07:29:47;99657.48825730351;;;3.2555123216601842;65.25391012436103
71642;BME280;60657;50.122;14.468;2023-02-04T07:32:55;99666.62793582793;;;3.525215533684289;64.4623483634699
71642;BME280;60657;50.122;14.468;2023-02-04T07:36:04;99680.34757264529;;;3.613336385137714;64.05226214999618
71642;BME280;60657;50.122;14.468;2023-02-04T07:39:12;99678.12326998099;;;3.8242923628595378;63.43427176317998
71642;BME280;60657;50.122;14.468;2023-02-04T07:42:23;99695.0802021276;;;3.928435187304494;62.9154650186923
71642;BME280;60657;50.122;14.468;2023-02-04T07:45:31;99689.84354817226;;;3.6320286869611635;63.45906767376211
71642;BME280;60657;50.122;14.468;2023-02-04T07:48:39;99708.10255289816;;;3.487830930037383;64.09231708247502
71642;BME280;60657;50.122;14.468;2023-02-04T07:51:47;99703.88359395212;;;3.2207980468451964;64.75608453498131
71642;BME280;60657;50.122;14.468;2023-02-04T07:54:56;99714.86305262866;;;3.194094758525978;64.99641412985427
71642;BME280;60657;50.122;14.468;2023-02-04T07:58:04;99724.01663194344;;;3.2288090333409656;65.15281910429542
71642;BME280;60657;50.122;14.468;2023-02-04T08:01:13;99733.87281709054;;;3.247501335164415;65.79751277943083
71642;BME280;60657;50.122;14.468;2023-02-04T08:04:21;99732.30697393543;;;3.0178530556191348;66.76455329213397
71642;BME280;60657;50.122;14.468;2023-02-04T08:07:29;99745.50985549302;;;2.9591058213168537;67.32913710231175
71642;BME280;60657;50.122;14.468;2023-02-04T08:10:37;99751.23572970513;;;2.6653696498054487;67.41496910048066
71642;BME280;60657;50.122;14.468;2023-02-04T08:13:45;99750.63521702081;;;2.68139162279698;66.8046082246128
71642;BME280;60657;50.122;14.468;2023-02-04T08:16:53;99768.9501900976;;;2.5612268253604924;64.93919279774167
71642;BME280;60657;50.122;14.468;2023-02-04T08:20:02;99766.87505693758;;;2.507820248722055;63.59258411535821
71642;BME280;60657;50.122;14.468;2023-02-04T08:23:11;99784.64092441864;;;2.622644388494699;62.22690165560388
71642;BME280;60657;50.122;14.468;2023-02-04T08:26:19;99790.6398882069;;;2.625314717326617;59.82551308461127
71642;BME280;60657;50.122;14.468;2023-02-04T08:29:27;99782.6999348086;;;2.8923476005188036;59.73586633096818
71642;BME280;60657;50.122;14.468;2023-02-04T08:32:35;99794.44323955603;;;3.0525673304341225;59.70153353170062
71642;BME280;60657;50.122;14.468;2023-02-04T08:35:46;99805.73552597799;;;3.2581826504921025;59.108339055466544
71642;BME280;60657;50.122;14.468;2023-02-04T08:38:54;99798.15795099846;;;3.362325474937059;58.93476768139162
71642;BME280;60657;50.122;14.468;2023-02-04T08:42:02;99791.2868181509;;;3.664072632944226;59.17700465400168
71642;BME280;60657;50.122;14.468;2023-02-04T08:45:10;99806.79028092952;;;3.8643472953383693;58.391165026321815
71642;BME280;60657;50.122;14.468;2023-02-04T08:48:18;99798.54003284112;;;3.5893034256504137;59.18654154268711
71642;BME280;60657;50.122;14.468;2023-02-04T08:51:27;99805.44766359661;;;3.664072632944226;59.45166704814221
71642;BME280;60657;50.122;14.468;2023-02-04T08:54:39;99824.52276963732;;;3.4718089570458517;60.23369192034791
71642;BME280;60657;50.122;14.468;2023-02-04T08:57:47;99842.81054039561;;;3.343633173113602;61.00617990386816
71642;BME280;60657;50.122;14.468;2023-02-04T09:00:55;99847.54524551654;;;3.138017853055622;62.17540245670253
71642;BME280;60657;50.122;14.468;2023-02-04T09:04:03;99850.15875089206;;;3.2421606775005714;62.25551232166018
71642;BME280;60657;50.122;14.468;2023-02-04T09:07:12;99849.68549868837;;;3.2795452811474775;62.043793392843526
71642;BME280;60657;50.122;14.468;2023-02-04T09:10:20;99859.8399412179;;;3.407721065079727;61.89692530708781
71642;BME280;60657;50.122;14.468;2023-02-04T09:13:28;99852.8900076272;;;3.3970397497520395;61.21599145494774
71642;BME280;60657;50.122;14.468;2023-02-04T09:16:36;99858.51801211057;;;3.4611276417181642;61.11490043488213
71642;BME280;60657;50.122;14.468;2023-02-04T09:19:45;99862.7489645705;;;3.437094682230871;60.72198062104219
71642;BME280;60657;50.122;14.468;2023-02-04T09:22:53;99862.92718193414;;;3.33562218661784;60.79636835278859
71642;BME280;60657;50.122;14.468;2023-02-04T09:26:01;99874.6263236217;;;3.3970397497520395;59.146486610208285
71642;BME280;60657;50.122;14.468;2023-02-04T09:29:09;99868.00491181067;;;3.340962844281684;60.02006561379416
71642;BME280;60657;50.122;14.468;2023-02-04T09:32:17;99874.00356227151;;;3.362325474937059;60.05058365758755
71642;BME280;60657;50.122;14.468;2023-02-04T09:35:26;99872.16335706874;;;3.7201495384145886;58.96910048065919
71642;BME280;60657;50.122;14.468;2023-02-04T09:38:40;99876.76684570582;;;4.39040207522698;56.62684061951629
71642;BME280;60657;50.122;14.468;2023-02-04T09:41:48;99878.49561417382;;;4.95384145876249;55.04562447547112
71642;BME280;60657;50.122;14.468;2023-02-04T09:44:59;99874.31522002199;;;5.549324788281069;53.433890287632565
71642;BME280;60657;50.122;14.468;2023-02-04T09:48:09;99883.52790681117;;;5.765621423666744;52.1769283588922
71642;BME280;60657;50.122;14.468;2023-02-04T09:51:21;99902.73833548451;;;5.389105058365757;52.51644159609369
71642;BME280;60657;50.122;14.468;2023-02-04T09:54:33;99913.34794898915;;;4.780270084687572;54.02899214160372
71642;BME280;60657;50.122;14.468;2023-02-04T09:57:46;99923.84130665737;;;4.641412985427635;54.86633096818494
71642;BME280;60657;50.122;14.468;2023-02-04T10:00:57;99942.77339047095;;;4.353017471580074;55.774242771038374
71642;BME280;60657;50.122;14.468;2023-02-04T10:04:16;99948.54787320556;;;4.083314259555962;56.05271992065309
71642;BME280;60657;50.122;14.468;2023-02-04T10:07:25;99943.95557247759;;;3.9898527504386934;56.74891279468986
71642;BME280;60657;50.122;14.468;2023-02-04T10:10:34;99948.089749421;;;3.8349736781872252;56.45517662317845
71642;BME280;60657;50.122;14.468;2023-02-04T10:13:43;99953.4282971424;;;3.744182497901882;56.41321431296254
71642;BME280;60657;50.122;14.468;2023-02-04T10:16:55;99937.27191103765;;;4.406424048218511;55.709391927977414
71642;BME280;60657;50.122;14.468;2023-02-04T10:20:10;99944.88906564224;;;5.084687571526665;54.234988937209124
71642;BME280;60657;50.122;14.468;2023-02-04T10:23:20;99941.97551102389;;;4.676127260242616;56.37125200274662
71642;BME280;60657;50.122;14.468;2023-02-04T10:26:29;99954.46194833225;;;4.697489890897991;56.346456092164495
71642;BME280;60657;50.122;14.468;2023-02-04T10:29:39;99958.7839499683;;;4.315632867933168;57.588158999008165
71642;BME280;60657;50.122;14.468;2023-02-04T10:32:47;99964.70327627179;;;4.206149385824368;57.885709925993744
71642;BME280;60657;50.122;14.468;2023-02-04T10:35:56;99976.46694130666;;;4.083314259555962;58.53421835660335
71642;BME280;60657;50.122;14.468;2023-02-04T10:39:05;99976.87745244577;;;3.9604791332875564;58.91760128175784
71642;BME280;60657;50.122;14.468;2023-02-04T10:42:20;99977.5781753607;;;3.9845120927748496;59.22850385290303
71642;BME280;60657;50.122;14.468;2023-02-04T10:45:30;99983.32194229017;;;3.7842374303807134;59.06828412298772
71642;BME280;60657;50.122;14.468;2023-02-04T10:48:39;99980.00843805923;;;3.8136110475318503;58.27672236209659
71642;BME280;60657;50.122;14.468;2023-02-04T10:51:49;99981.37228294776;;;3.949797817959869;57.605325398641945
71642;BME280;60657;50.122;14.468;2023-02-04T10:54:59;99973.30748452905;;;3.7495231555657256;58.16990920881972
71642;BME280;60657;50.122;14.468;2023-02-04T10:58:10;99980.70690888182;;;3.8136110475318503;58.38162813763638
71642;BME280;60657;50.122;14.468;2023-02-04T11:01:23;99978.2657769601;;;3.5732814526588825;59.07209887846189
71642;BME280;60657;50.122;14.468;2023-02-04T11:04:36;99998.1561001869;;;3.503852903028914;59.40016784924086
71642;BME280;60657;50.122;14.468;2023-02-04T11:07:44;100000.46850371195;;;3.5225452048523707;59.33340962844282
71642;BME280;60657;50.122;14.468;2023-02-04T11:10:55;99992.75831184471;;;3.5732814526588825;58.2309452964065
71642;BME280;60657;50.122;14.468;2023-02-04T11:14:20;99996.30876219009;;;3.4718089570458517;57.6415655756466
71642;BME280;60657;50.122;14.468;2023-02-04T11:17:33;100000.46850371195;;;3.5732814526588825;57.97154192416266
71642;BME280;60657;50.122;14.468;2023-02-04T11:20:42;100009.71221284261;;;3.658731975280382;59.43068589303425
71642;BME280;60657;50.122;14.468;2023-02-04T11:24:02;100024.11915686926;;;3.482490272373539;58.75738155184253
71642;BME280;60657;50.122;14.468;2023-02-04T11:27:18;100028.97223942443;;;3.65072098878462;59.63859006637675